Arcadia, OH

9:16 AM EST on January 25, 2015 (GMT -0500)
Arcadia Ohio Williesweather | Change Station
CLOSE
Current Station
Personal Weather Station
Location: ARCADIA, OH
Elevation: 820 ft
Nearby Weather Stations
Active Advisory: Winter Weather Advisory

Elev 820 ft 41.12 °N, 83.52 °W | Updated 4 seconds ago

Overcast
Overcast
30.6 °F
Feels Like 18 °F
N
19.0
Wind Variable Wind from ENE
Gusts 22.0 mph

Today
High -- | Low -- °F
--% Chance of Precip.
Yesterday
High -- | Low -- °F
Precip. -- in
7:51 AM 5:41 PM
Waxing Crescent, 32% visible
Pressure 29.76 in
Visibility 6.0 miles
Clouds Overcast 1400 ft
Windchill 18 °F
Dew Point 29 °F
Humidity 92%
Rainfall 0.00 in
Snow Depth Not available.
UV 0 out of 12
Pollen .10 out of 12
Air Quality Not available.
Flu Activity Not available.
METAR KFDY 251353Z AUTO 06004KT 6SM BR OVC014 02/M01 A2975 RMK AO2 SLP078 T00171006

More Conditions Fewer Conditions

Pressure 29.76 in
Visibility 6.0 miles
Clouds Overcast 1400 ft
Windchill 18 °F
Dew Point 29 °F
Humidity 92%
Rainfall 0.00 in
Snow Depth Not available.
UV 0 out of 12
Pollen .10 out of 12
Air Quality Not available.
Flu Activity Not available.
METAR KFDY 251353Z AUTO 06004KT 6SM BR OVC014 02/M01 A2975 RMK AO2 SLP078 T00171006

More Conditions Fewer Conditions

10-Day Weather Forecast

Almanac

Astronomy

Jan. 25, 2015 Rise Set
Actual Time
Civil Twilight
Nautical Twilight
Astronomical Twilight
Moon
Length of Visible Light
Length of Day
Tomorrow will be .
, % of the Moon is Illuminated

Today's Extremes

State Highs State Lows

Community

WunderPhotos

Upload Photos

1,789,893 photos uploaded!

WunderBlogs® & News

Nearby

Air Quality

  Air Quality AQ Index Pollutant
Not available.

Snow Depth

Station Depth Elevation

Earthquake Activity

City Distance Mag. Time & Date
Minimum magnitude displayed is 2.5.

Coastal Water Temperatures

Place Temperature

Nearby Weather Stations